Time;durP1;ratioP1;P1;durP2;ratioP2;P2;SDS_P1;SDS_P2;PMS_P1;PMS_P2;Temp;Humidity;BMP_temperature;BMP_pressure;BME280_temperature;BME280_humidity;BME280_pressure;Samples;Min_cycle;Max_cycle;Signal;HPM_P1;HPM_P2
2023/04/28 00:00:18;;;;;;;12.80;8.30;;;8.70;72.60;;;;;;5014801;28;20030;-74
2023/04/28 00:02:46;;;;;;;13.43;8.35;;;8.70;72.70;;;;;;5030699;28;20411;-74
2023/04/28 00:05:12;;;;;;;12.73;7.38;;;8.70;72.80;;;;;;5016181;28;20429;-74
2023/04/28 00:07:38;;;;;;;13.55;7.30;;;8.70;72.70;;;;;;5024366;28;20049;-74
2023/04/28 00:10:05;;;;;;;14.13;7.97;;;8.60;72.80;;;;;;5018810;28;20030;-74
2023/04/28 00:12:31;;;;;;;14.45;7.57;;;8.60;72.90;;;;;;5022068;28;20057;-74
2023/04/28 00:14:56;;;;;;;12.95;7.97;;;8.50;73.10;;;;;;5029089;28;20120;-74
2023/04/28 00:17:22;;;;;;;12.13;7.25;;;8.50;73.20;;;;;;5014877;28;20053;-74
2023/04/28 00:19:48;;;;;;;14.52;7.03;;;8.50;73.30;;;;;;5015483;28;20024;-74
2023/04/28 00:22:14;;;;;;;14.50;7.45;;;8.50;73.40;;;;;;5014336;28;20034;-74
2023/04/28 00:24:40;;;;;;;13.57;7.47;;;8.40;73.50;;;;;;5021742;28;20631;-74
2023/04/28 00:27:06;;;;;;;9.88;6.95;;;8.40;73.60;;;;;;5022095;28;20033;-74
2023/04/28 00:29:32;;;;;;;10.63;6.75;;;8.40;73.60;;;;;;5023953;28;20029;-75
2023/04/28 00:31:57;;;;;;;11.77;7.25;;;8.40;73.70;;;;;;5020887;28;20028;-75
2023/04/28 00:34:23;;;;;;;9.13;6.82;;;8.30;73.70;;;;;;5021547;28;20065;-75
2023/04/28 00:36:49;;;;;;;12.80;7.57;;;8.30;73.80;;;;;;5026499;28;20030;-75
2023/04/28 00:39:17;;;;;;;13.45;7.22;;;8.20;73.90;;;;;;5030931;28;20029;-75
2023/04/28 00:41:42;;;;;;;10.57;6.57;;;8.20;74.00;;;;;;5020979;28;20025;-73
2023/04/28 00:44:08;;;;;;;13.02;6.30;;;8.20;74.00;;;;;;5030809;28;20087;-74
2023/04/28 00:46:33;;;;;;;9.88;6.10;;;8.20;74.00;;;;;;5028885;28;20037;-73
2023/04/28 00:48:59;;;;;;;13.65;7.40;;;8.20;74.00;;;;;;5013359;28;20034;-73
2023/04/28 00:51:27;;;;;;;14.07;7.18;;;8.10;74.00;;;;;;5026100;28;20656;-74
2023/04/28 00:53:53;;;;;;;10.82;6.85;;;8.10;74.10;;;;;;5022782;28;20088;-74
2023/04/28 00:56:20;;;;;;;12.07;7.53;;;8.10;74.20;;;;;;5026234;28;20037;-73
2023/04/28 00:58:45;;;;;;;13.45;7.25;;;8.10;74.30;;;;;;5016365;28;20036;-73
2023/04/28 01:01:11;;;;;;;11.25;7.55;;;8.10;74.40;;;;;;5026192;28;20037;-74
2023/04/28 01:03:39;;;;;;;14.18;8.30;;;8.10;74.50;;;;;;5026229;28;20029;-74
2023/04/28 01:06:06;;;;;;;11.38;7.13;;;8.10;74.60;;;;;;5021523;28;20448;-74
2023/04/28 01:08:33;;;;;;;13.38;7.60;;;8.00;74.70;;;;;;5022874;28;20124;-75
2023/04/28 01:10:59;;;;;;;13.43;6.72;;;8.00;74.80;;;;;;5020919;28;20058;-74
2023/04/28 01:13:25;;;;;;;13.55;6.50;;;8.00;74.90;;;;;;5020021;28;20073;-74
2023/04/28 01:15:51;;;;;;;12.85;6.88;;;7.90;75.00;;;;;;5029039;28;20021;-74
2023/04/28 01:18:17;;;;;;;11.32;6.50;;;7.90;75.20;;;;;;5020572;28;20548;-74
2023/04/28 01:20:42;;;;;;;12.43;6.53;;;7.90;75.90;;;;;;5015969;28;20504;-74
2023/04/28 01:23:15;;;;;;;12.02;6.82;;;7.90;75.50;;;;;;5022002;28;20473;-74
2023/04/28 01:25:42;;;;;;;9.02;5.80;;;7.90;75.70;;;;;;5012817;28;20033;-74
2023/04/28 01:28:09;;;;;;;11.55;5.47;;;7.90;75.70;;;;;;5018277;28;20033;-74
2023/04/28 01:30:34;;;;;;;8.55;5.88;;;7.80;75.80;;;;;;5025565;28;20505;-74
2023/04/28 01:33:01;;;;;;;9.40;5.10;;;7.90;76.40;;;;;;5014532;28;20037;-74
2023/04/28 01:35:26;;;;;;;10.30;5.32;;;7.90;76.00;;;;;;5024638;28;20033;-74
2023/04/28 01:37:52;;;;;;;9.73;5.32;;;7.80;76.00;;;;;;5024835;28;20029;-74
2023/04/28 01:40:18;;;;;;;7.70;5.35;;;7.80;76.10;;;;;;5027964;28;20033;-74
2023/04/28 01:42:44;;;;;;;10.38;5.85;;;7.80;76.30;;;;;;5010605;28;20541;-74
2023/04/28 01:45:10;;;;;;;9.10;5.32;;;7.80;76.60;;;;;;5017615;28;20469;-73
2023/04/28 01:47:35;;;;;;;9.38;5.55;;;7.80;76.90;;;;;;5016262;28;21006;-73
2023/04/28 01:50:01;;;;;;;8.63;5.80;;;7.80;77.20;;;;;;5013006;28;20107;-73
2023/04/28 01:52:27;;;;;;;10.43;5.70;;;7.80;77.50;;;;;;5014604;28;20025;-73
2023/04/28 01:54:53;;;;;;;11.82;6.38;;;7.70;77.70;;;;;;5017784;28;20029;-73
2023/04/28 01:57:19;;;;;;;7.57;5.13;;;7.70;78.00;;;;;;5024666;28;20025;-74
2023/04/28 01:59:45;;;;;;;8.00;5.78;;;7.70;78.20;;;;;;5020157;28;20370;-73
2023/04/28 02:02:10;;;;;;;8.40;5.85;;;7.70;78.40;;;;;;5013350;28;20152;-73
2023/04/28 02:04:39;;;;;;;8.55;5.53;;;7.70;78.70;;;;;;5024374;28;20033;-73
2023/04/28 02:07:06;;;;;;;8.43;4.70;;;7.70;79.40;;;;;;5021128;28;20455;-73
2023/04/28 02:09:32;;;;;;;10.45;5.75;;;7.70;79.00;;;;;;5013943;28;20021;-74
2023/04/28 02:11:59;;;;;;;5.95;4.45;;;7.60;79.10;;;;;;5017217;28;20049;-75
2023/04/28 02:14:24;;;;;;;7.68;5.10;;;7.70;79.30;;;;;;5015822;28;20033;-74
2023/04/28 02:16:50;;;;;;;7.13;4.68;;;7.60;79.30;;;;;;5012189;28;20084;-75
2023/04/28 02:19:16;;;;;;;8.63;5.22;;;7.70;79.40;;;;;;5016174;28;20553;-75
2023/04/28 02:21:42;;;;;;;9.38;4.95;;;7.60;79.40;;;;;;5018865;28;20061;-75
2023/04/28 02:24:07;;;;;;;7.32;4.25;;;7.60;79.50;;;;;;5025059;28;20117;-75
2023/04/28 02:26:34;;;;;;;8.35;5.15;;;7.60;79.60;;;;;;5014370;28;20556;-75
2023/04/28 02:29:00;;;;;;;8.63;5.13;;;7.60;79.60;;;;;;5011845;28;20034;-75
2023/04/28 02:31:26;;;;;;;8.73;5.18;;;7.60;80.20;;;;;;5023873;28;20105;-75
2023/04/28 02:33:52;;;;;;;7.30;4.82;;;7.60;79.80;;;;;;5015601;28;20464;-75
2023/04/28 02:36:18;;;;;;;7.47;4.57;;;7.50;79.80;;;;;;5026995;28;20038;-75
2023/04/28 02:38:43;;;;;;;7.00;4.95;;;7.50;79.90;;;;;;5021780;28;20083;-75
2023/04/28 02:41:10;;;;;;;7.70;4.28;;;7.50;79.90;;;;;;5024953;28;20030;-75
2023/04/28 02:43:36;;;;;;;8.50;4.28;;;7.50;80.00;;;;;;5020997;28;20047;-74
2023/04/28 02:46:05;;;;;;;7.30;4.28;;;7.50;80.10;;;;;;5024155;28;20041;-74
2023/04/28 02:48:32;;;;;;;6.78;4.55;;;7.50;80.30;;;;;;5018792;28;20025;-75
2023/04/28 02:50:58;;;;;;;7.78;4.65;;;7.50;80.20;;;;;;5013142;28;20037;-75
2023/04/28 02:53:23;;;;;;;7.35;4.75;;;7.40;80.30;;;;;;5012407;28;20022;-75
2023/04/28 02:55:49;;;;;;;10.68;4.28;;;7.40;80.20;;;;;;5012913;28;20037;-75
2023/04/28 02:58:16;;;;;;;6.55;4.03;;;7.40;80.30;;;;;;5011628;28;20109;-75
2023/04/28 03:00:42;;;;;;;7.82;3.70;;;7.30;80.30;;;;;;5011987;28;20474;-75
2023/04/28 03:03:07;;;;;;;8.75;4.57;;;7.30;80.50;;;;;;5019112;28;20025;-74
2023/04/28 03:05:33;;;;;;;6.68;3.90;;;7.40;80.60;;;;;;5010221;28;20033;-75
2023/04/28 03:07:59;;;;;;;6.63;4.10;;;7.30;80.60;;;;;;5010530;28;20036;-75
2023/04/28 03:10:25;;;;;;;7.78;4.03;;;7.30;80.70;;;;;;5017320;28;20021;-75
2023/04/28 03:12:50;;;;;;;6.25;4.15;;;7.30;80.80;;;;;;5017563;28;20053;-75
2023/04/28 03:15:16;;;;;;;6.72;4.10;;;7.30;80.90;;;;;;5015853;28;20033;-74
2023/04/28 03:17:43;;;;;;;7.68;4.35;;;7.30;80.90;;;;;;5024066;28;20025;-75
2023/04/28 03:20:09;;;;;;;8.85;4.38;;;7.30;81.10;;;;;;5018759;28;20033;-75
2023/04/28 03:22:35;;;;;;;6.90;4.70;;;7.30;81.20;;;;;;5017355;28;20024;-75
2023/04/28 03:25:01;;;;;;;6.50;4.47;;;7.30;81.20;;;;;;5012270;28;20029;-75
2023/04/28 03:27:27;;;;;;;6.95;4.28;;;7.30;81.20;;;;;;5025462;28;20036;-74
2023/04/28 03:29:53;;;;;;;7.80;5.07;;;7.20;81.20;;;;;;5014432;28;20396;-74
2023/04/28 03:32:18;;;;;;;7.75;5.10;;;7.20;81.30;;;;;;5013650;28;20038;-75
2023/04/28 03:34:44;;;;;;;6.20;4.22;;;7.20;81.30;;;;;;5013931;28;20534;-75
2023/04/28 03:37:10;;;;;;;8.95;5.10;;;7.10;81.30;;;;;;5019032;28;20481;-75
2023/04/28 03:39:36;;;;;;;8.05;4.82;;;7.20;81.40;;;;;;5013110;28;20064;-76
2023/04/28 03:42:01;;;;;;;9.77;4.78;;;7.10;81.60;;;;;;5019570;28;20029;-77
2023/04/28 03:44:27;;;;;;;7.07;4.60;;;7.20;81.40;;;;;;5014694;28;20092;-77
2023/04/28 03:46:53;;;;;;;8.50;4.78;;;7.20;81.50;;;;;;5011316;28;20088;-73
2023/04/28 03:49:18;;;;;;;8.30;4.20;;;7.20;81.50;;;;;;5010481;28;20032;-75
2023/04/28 03:51:44;;;;;;;7.32;4.15;;;7.20;81.60;;;;;;5013046;28;20546;-75
2023/04/28 03:54:09;;;;;;;7.47;4.18;;;7.20;81.60;;;;;;5023779;28;20025;-75
2023/04/28 03:56:36;;;;;;;11.07;4.68;;;7.20;81.60;;;;;;5021214;28;20030;-75
2023/04/28 03:59:02;;;;;;;9.00;4.30;;;7.20;81.60;;;;;;5015869;28;20385;-74
2023/04/28 04:01:27;;;;;;;7.05;4.13;;;7.20;81.60;;;;;;5018966;28;20024;-75
2023/04/28 04:03:53;;;;;;;8.25;4.32;;;7.20;81.60;;;;;;5019805;28;20124;-75
2023/04/28 04:06:20;;;;;;;5.80;3.90;;;7.20;81.60;;;;;;5013448;28;20095;-75
2023/04/28 04:08:45;;;;;;;6.93;4.07;;;7.20;81.70;;;;;;5013826;28;20022;-75
2023/04/28 04:11:11;;;;;;;9.10;3.83;;;7.30;82.30;;;;;;5024734;28;20090;-74
2023/04/28 04:13:36;;;;;;;6.90;4.20;;;7.30;81.90;;;;;;5024263;28;20034;-75
2023/04/28 04:16:02;;;;;;;7.05;3.70;;;7.30;81.90;;;;;;5029286;28;20413;-76
2023/04/28 04:18:28;;;;;;;7.75;4.15;;;7.30;82.00;;;;;;5023003;28;20053;-75
2023/04/28 04:20:54;;;;;;;6.20;4.03;;;7.40;82.00;;;;;;5014661;28;20121;-74
2023/04/28 04:23:21;;;;;;;5.65;3.88;;;7.40;82.10;;;;;;5022514;28;20026;-74
2023/04/28 04:25:46;;;;;;;7.28;4.28;;;7.40;82.20;;;;;;5013861;28;20033;-75
2023/04/28 04:28:12;;;;;;;9.77;3.95;;;7.40;82.00;;;;;;5024477;28;20045;-75
2023/04/28 04:30:38;;;;;;;7.07;4.20;;;7.50;82.00;;;;;;5014504;28;20022;-75
2023/04/28 04:33:04;;;;;;;7.10;4.40;;;7.50;81.90;;;;;;5017729;28;20121;-75
2023/04/28 04:35:30;;;;;;;6.53;4.10;;;7.50;81.90;;;;;;5014005;28;20457;-75
2023/04/28 04:37:55;;;;;;;8.55;4.10;;;7.50;81.80;;;;;;5028276;28;20029;-75
2023/04/28 04:40:21;;;;;;;8.27;4.35;;;7.50;81.80;;;;;;5020512;28;20030;-75
2023/04/28 04:42:47;;;;;;;6.70;4.53;;;7.50;81.60;;;;;;5025353;28;20041;-74
2023/04/28 04:45:12;;;;;;;6.78;4.07;;;7.50;82.10;;;;;;5029465;28;20044;-75
2023/04/28 04:47:39;;;;;;;7.75;4.40;;;7.50;81.70;;;;;;5027550;28;20124;-75
2023/04/28 04:50:05;;;;;;;6.80;3.75;;;7.50;81.50;;;;;;5014523;28;20117;-75
2023/04/28 04:52:30;;;;;;;6.80;3.80;;;7.50;81.50;;;;;;5014446;28;20053;-75
2023/04/28 04:54:56;;;;;;;6.15;3.78;;;7.50;81.60;;;;;;5013656;28;20088;-75
2023/04/28 04:57:22;;;;;;;7.07;4.25;;;7.60;81.70;;;;;;5021054;28;20083;-75
2023/04/28 04:59:47;;;;;;;7.40;4.28;;;7.60;81.80;;;;;;5023236;28;20028;-75
2023/04/28 05:02:13;;;;;;;6.75;3.85;;;7.60;81.80;;;;;;5028341;28;20037;-75
2023/04/28 05:04:38;;;;;;;7.43;4.25;;;7.70;81.80;;;;;;5021282;28;20018;-75
2023/04/28 05:07:04;;;;;;;5.88;4.15;;;7.70;81.70;;;;;;5014893;28;20045;-74
2023/04/28 05:09:30;;;;;;;7.22;4.40;;;7.70;81.70;;;;;;5013703;28;20029;-74
2023/04/28 05:11:56;;;;;;;8.07;4.00;;;7.80;81.60;;;;;;5027465;28;20065;-75
2023/04/28 05:14:22;;;;;;;7.78;4.05;;;7.80;81.50;;;;;;5026982;28;20022;-74
2023/04/28 05:16:48;;;;;;;6.97;4.60;;;7.90;81.50;;;;;;5028212;28;20432;-75
2023/04/28 05:19:14;;;;;;;7.13;3.92;;;7.90;81.30;;;;;;5031713;28;20037;-75
2023/04/28 05:21:39;;;;;;;9.00;4.18;;;8.00;81.20;;;;;;5020624;28;20053;-74
2023/04/28 05:24:05;;;;;;;6.50;3.88;;;8.10;81.10;;;;;;5013157;28;20033;-75
2023/04/28 05:26:31;;;;;;;5.68;3.83;;;8.10;80.90;;;;;;5027601;28;20196;-74
2023/04/28 05:28:56;;;;;;;8.30;4.35;;;8.20;80.90;;;;;;5020957;28;20057;-75
2023/04/28 05:31:22;;;;;;;5.40;3.95;;;8.30;80.80;;;;;;5018159;28;20022;-74
2023/04/28 05:33:47;;;;;;;7.35;3.78;;;8.20;80.60;;;;;;5015297;28;20029;-75
2023/04/28 05:36:15;;;;;;;7.95;3.78;;;8.30;80.50;;;;;;5013197;28;20138;-70
2023/04/28 05:38:41;;;;;;;5.43;4.10;;;8.30;80.40;;;;;;5013535;28;20030;-72
2023/04/28 05:41:07;;;;;;;6.97;3.97;;;8.40;80.60;;;;;;5018817;28;20037;-73
2023/04/28 05:43:33;;;;;;;8.63;4.30;;;8.40;80.50;;;;;;5017714;28;20034;-73
2023/04/28 05:45:59;;;;;;;8.40;4.03;;;8.50;80.40;;;;;;5012628;28;20087;-73
2023/04/28 05:48:25;;;;;;;8.30;4.20;;;8.50;80.20;;;;;;5020627;28;20059;-72
2023/04/28 05:50:51;;;;;;;7.28;3.70;;;8.60;80.10;;;;;;5026879;28;20033;-73
2023/04/28 05:53:16;;;;;;;5.93;3.97;;;8.70;80.10;;;;;;5027030;28;20030;-73
2023/04/28 05:55:42;;;;;;;5.53;3.42;;;8.70;80.00;;;;;;5022233;28;20029;-73
2023/04/28 05:58:08;;;;;;;6.63;3.60;;;8.80;80.00;;;;;;5024221;28;20029;-73
2023/04/28 06:00:33;;;;;;;5.40;3.65;;;8.90;79.80;;;;;;5021341;28;20029;-69
2023/04/28 06:02:59;;;;;;;8.45;3.83;;;9.00;80.30;;;;;;5016679;28;20041;-70
2023/04/28 06:05:25;;;;;;;6.57;3.63;;;9.10;79.80;;;;;;5020346;28;20084;-69
2023/04/28 06:07:51;;;;;;;8.55;3.97;;;9.10;79.60;;;;;;5019862;28;20390;-69
2023/04/28 06:10:18;;;;;;;6.35;3.85;;;9.20;79.50;;;;;;5019162;28;20017;-69
2023/04/28 06:12:43;;;;;;;21.20;4.20;;;9.30;79.20;;;;;;5021802;28;20405;-69
2023/04/28 06:15:09;;;;;;;6.47;4.10;;;9.30;79.10;;;;;;5017177;28;20029;-70
2023/04/28 06:17:36;;;;;;;7.25;4.13;;;9.40;78.90;;;;;;5023829;28;20030;-68
2023/04/28 06:20:02;;;;;;;8.70;4.78;;;9.50;78.70;;;;;;5012188;28;20038;-69
2023/04/28 06:22:27;;;;;;;5.78;3.67;;;9.60;78.70;;;;;;5021260;28;20088;-69
2023/04/28 06:24:53;;;;;;;10.98;4.70;;;9.70;78.40;;;;;;5020309;28;20048;-70
2023/04/28 06:27:19;;;;;;;10.73;4.68;;;9.70;78.30;;;;;;5018707;28;20040;-69
2023/04/28 06:29:44;;;;;;;8.85;4.35;;;9.90;78.10;;;;;;5011529;28;20522;-70
2023/04/28 06:32:10;;;;;;;9.85;4.22;;;10.00;77.80;;;;;;5017639;28;20465;-70
2023/04/28 06:34:36;;;;;;;6.38;4.05;;;10.10;78.60;;;;;;5019039;28;20017;-69
2023/04/28 06:37:02;;;;;;;9.43;4.28;;;10.10;78.10;;;;;;5013743;28;20109;-69
2023/04/28 06:39:27;;;;;;;5.80;4.03;;;10.30;77.70;;;;;;5014940;28;20097;-71
2023/04/28 06:41:53;;;;;;;6.43;3.88;;;10.40;77.40;;;;;;5012310;28;20068;-70
2023/04/28 06:44:19;;;;;;;7.80;4.22;;;10.50;77.20;;;;;;5014909;28;20105;-70
2023/04/28 06:46:44;;;;;;;10.60;3.88;;;10.60;77.00;;;;;;5012647;28;20041;-70
2023/04/28 06:49:10;;;;;;;8.40;4.00;;;10.70;77.00;;;;;;5012049;28;20037;-70
2023/04/28 06:51:36;;;;;;;6.88;4.22;;;10.90;76.70;;;;;;5010646;28;20052;-69
2023/04/28 06:54:01;;;;;;;6.85;3.75;;;11.00;76.30;;;;;;5012669;28;20130;-69
2023/04/28 06:56:27;;;;;;;7.50;3.75;;;11.10;76.00;;;;;;5013164;28;20477;-69
2023/04/28 06:58:57;;;;;;;8.35;3.40;;;11.20;75.60;;;;;;5026830;28;20041;-70
2023/04/28 07:01:23;;;;;;;6.57;3.47;;;11.30;75.10;;;;;;5029019;28;20056;-68
2023/04/28 07:03:49;;;;;;;11.02;3.20;;;11.40;74.50;;;;;;5013542;28;20105;-70
2023/04/28 07:06:15;;;;;;;6.82;3.22;;;11.50;74.10;;;;;;5016170;28;20038;-69
2023/04/28 07:08:41;;;;;;;4.85;2.95;;;11.60;74.00;;;;;;5014199;28;20024;-69
2023/04/28 07:11:07;;;;;;;5.80;3.17;;;11.70;73.40;;;;;;5012704;28;20029;-69
2023/04/28 07:13:32;;;;;;;6.47;3.00;;;11.80;72.60;;;;;;5013860;28;20830;-69
2023/04/28 07:15:58;;;;;;;8.90;3.70;;;11.90;72.60;;;;;;5013822;28;20034;-69
2023/04/28 07:18:24;;;;;;;4.57;2.83;;;11.90;72.20;;;;;;5017806;28;20028;-69
2023/04/28 07:20:50;;;;;;;5.80;2.80;;;12.00;72.10;;;;;;5011709;28;20121;-69
2023/04/28 07:23:16;;;;;;;4.68;2.88;;;12.00;71.30;;;;;;5021317;28;20029;-69
2023/04/28 07:25:41;;;;;;;4.35;2.83;;;12.10;71.40;;;;;;5011859;28;20033;-69
2023/04/28 07:28:07;;;;;;;5.72;2.85;;;12.20;71.40;;;;;;5019649;28;20068;-69
2023/04/28 07:30:34;;;;;;;7.50;3.63;;;12.20;71.40;;;;;;5016329;28;20749;-69
2023/04/28 07:33:00;;;;;;;5.88;3.10;;;12.30;70.70;;;;;;5021870;28;20037;-70
2023/04/28 07:35:26;;;;;;;5.35;3.00;;;12.30;70.80;;;;;;5024515;28;20029;-70
2023/04/28 07:37:52;;;;;;;7.80;3.50;;;12.40;70.60;;;;;;5019584;28;20437;-70
2023/04/28 07:40:18;;;;;;;6.97;3.15;;;12.50;70.20;;;;;;5014811;28;20422;-69
2023/04/28 07:42:44;;;;;;;7.32;3.08;;;12.50;70.00;;;;;;5019337;28;20117;-69
2023/04/28 07:45:10;;;;;;;8.07;3.75;;;12.60;69.80;;;;;;5024408;28;20116;-69
2023/04/28 07:47:36;;;;;;;6.90;3.50;;;12.60;69.00;;;;;;5019211;28;20036;-69
2023/04/28 07:50:05;;;;;;;5.72;3.20;;;12.70;69.30;;;;;;5019007;28;20038;-70
2023/04/28 07:52:31;;;;;;;6.18;3.40;;;12.70;69.00;;;;;;5019255;28;21553;-69
2023/04/28 07:54:58;;;;;;;11.65;3.35;;;12.70;68.90;;;;;;5026040;28;20072;-70
2023/04/28 07:57:24;;;;;;;7.30;3.40;;;12.70;68.30;;;;;;5018005;28;20109;-70
2023/04/28 07:59:50;;;;;;;8.18;3.83;;;12.80;68.80;;;;;;5014200;28;20031;-70
2023/04/28 08:02:15;;;;;;;6.68;3.13;;;12.80;68.80;;;;;;5014999;28;20041;-70
2023/04/28 08:04:41;;;;;;;4.80;3.45;;;12.80;68.20;;;;;;5014113;28;20018;-70
2023/04/28 08:07:08;;;;;;;5.57;2.80;;;12.90;68.40;;;;;;5022967;28;20033;-70
2023/04/28 08:09:34;;;;;;;5.20;3.53;;;12.90;68.90;;;;;;5025086;28;20037;-69
2023/04/28 08:12:00;;;;;;;7.00;3.58;;;13.00;68.70;;;;;;5011595;28;20053;-70
2023/04/28 08:14:26;;;;;;;7.68;3.20;;;13.10;68.80;;;;;;5027725;28;20032;-70
2023/04/28 08:16:53;;;;;;;4.90;2.95;;;13.10;68.70;;;;;;5021362;28;20025;-70
2023/04/28 08:19:19;;;;;;;8.50;4.10;;;13.20;68.20;;;;;;5015376;28;20064;-69
2023/04/28 08:21:45;;;;;;;6.70;3.15;;;13.20;68.50;;;;;;5019593;28;20017;-69
2023/04/28 08:24:10;;;;;;;5.40;3.28;;;13.30;68.60;;;;;;5013786;28;20033;-70
2023/04/28 08:26:37;;;;;;;5.55;3.38;;;13.40;68.40;;;;;;5020315;28;20115;-69
2023/04/28 08:29:03;;;;;;;5.07;3.28;;;13.40;68.30;;;;;;5014504;28;20114;-69
2023/04/28 08:31:29;;;;;;;6.68;3.08;;;13.50;67.90;;;;;;5022111;28;20037;-69
2023/04/28 08:33:54;;;;;;;6.53;3.70;;;13.60;68.10;;;;;;5014683;28;20033;-69
2023/04/28 08:36:20;;;;;;;6.15;2.92;;;13.70;67.70;;;;;;5029100;28;20493;-69
2023/04/28 08:38:46;;;;;;;6.30;3.60;;;13.70;67.50;;;;;;5021688;28;20033;-70
2023/04/28 08:41:15;;;;;;;7.15;3.10;;;13.80;67.60;;;;;;5016465;28;20034;-69
2023/04/28 08:43:42;;;;;;;8.25;3.00;;;13.80;67.10;;;;;;5030240;28;20037;-70
2023/04/28 08:46:09;;;;;;;6.40;3.72;;;13.90;67.20;;;;;;5017458;28;20091;-69
2023/04/28 08:48:44;;;;;;;6.35;3.30;;;14.00;66.80;;;;;;5013712;28;20029;-69
2023/04/28 08:51:15;;;;;;;5.38;3.20;;;14.00;66.20;;;;;;5014123;28;20038;-69
2023/04/28 08:53:47;;;;;;;5.60;3.42;;;14.10;66.30;;;;;;5014314;28;20374;-69
2023/04/28 08:56:15;;;;;;;6.43;3.67;;;14.10;66.30;;;;;;5019554;28;20049;-69
2023/04/28 08:58:41;;;;;;;6.30;3.55;;;14.20;65.50;;;;;;5023537;28;20104;-69
2023/04/28 09:01:07;;;;;;;7.07;3.50;;;14.20;65.20;;;;;;5030451;28;20121;-69
2023/04/28 09:03:33;;;;;;;10.13;3.83;;;14.30;65.30;;;;;;5017362;28;20048;-69
2023/04/28 09:06:00;;;;;;;6.32;3.40;;;14.40;65.00;;;;;;5016749;28;20120;-69
2023/04/28 09:08:27;;;;;;;5.78;3.60;;;14.50;64.80;;;;;;5013363;28;20034;-70
2023/04/28 09:11:22;;;;;;;9.23;3.47;;;14.50;64.60;;;;;;5012082;28;20037;-70
2023/04/28 09:13:47;;;;;;;;;;;14.60;64.40;;;;;;5016436;28;20045;-69
2023/04/28 09:16:13;;;;;;;7.20;4.10;;;14.50;64.00;;;;;;5013370;28;19918;-70
2023/04/28 09:18:41;;;;;;;6.60;3.53;;;14.50;64.10;;;;;;5016796;28;20033;-69
2023/04/28 09:21:08;;;;;;;6.57;3.70;;;14.50;64.00;;;;;;5014283;28;20040;-69
2023/04/28 09:23:50;;;;;;;8.30;4.20;;;14.60;63.70;;;;;;5018252;28;20137;-70
2023/04/28 09:26:16;;;;;;;11.77;3.97;;;14.60;63.40;;;;;;5013020;28;20041;-69
2023/04/28 09:28:42;;;;;;;9.02;3.85;;;14.70;63.70;;;;;;5013680;28;20037;-69
2023/04/28 09:31:24;;;;;;;6.78;3.85;;;14.70;63.70;;;;;;5014114;28;20060;-70
2023/04/28 09:33:59;;;;;;;9.02;4.13;;;14.90;63.90;;;;;;5016055;28;20037;-70
2023/04/28 09:36:28;;;;;;;6.82;4.10;;;15.00;63.90;;;;;;5029853;28;20140;-72
2023/04/28 09:38:56;;;;;;;5.43;3.20;;;15.10;63.90;;;;;;5013188;28;20056;-72
2023/04/28 09:41:39;;;;;;;9.27;3.50;;;15.20;63.70;;;;;;5017684;28;20108;-72
2023/04/28 09:44:20;;;;;;;9.38;3.80;;;15.30;63.50;;;;;;5018350;28;20036;-72
2023/04/28 09:46:46;;;;;;;4.85;3.38;;;15.40;63.70;;;;;;5035950;28;20046;-71
2023/04/28 09:49:13;;;;;;;6.32;3.75;;;15.50;63.50;;;;;;5010242;28;20034;-72
2023/04/28 09:51:39;;;;;;;7.05;3.17;;;15.60;63.50;;;;;;5023103;28;20029;-70
2023/04/28 09:54:05;;;;;;;6.15;3.53;;;15.70;63.60;;;;;;5016677;28;20072;-70
2023/04/28 09:56:33;;;;;;;6.20;3.40;;;15.90;63.50;;;;;;5011657;28;20075;-72
2023/04/28 09:59:01;;;;;;;6.53;4.57;;;16.10;63.20;;;;;;5012668;28;20030;-71
2023/04/28 10:01:30;;;;;;;9.25;3.97;;;16.10;63.00;;;;;;5013151;28;20108;-71
2023/04/28 10:03:58;;;;;;;7.72;3.65;;;16.20;62.40;;;;;;5026067;28;20481;-71
2023/04/28 10:06:26;;;;;;;5.45;3.80;;;16.30;61.90;;;;;;5030735;28;20056;-72
2023/04/28 10:08:56;;;;;;;7.20;3.63;;;16.30;61.90;;;;;;5024062;28;20029;-71
2023/04/28 10:11:25;;;;;;;5.97;3.30;;;16.40;61.90;;;;;;5012369;28;20033;-72
2023/04/28 10:13:52;;;;;;;14.02;4.63;;;16.50;61.70;;;;;;5012689;28;20120;-71
2023/04/28 10:16:19;;;;;;;7.03;3.50;;;16.60;61.80;;;;;;5027073;28;20487;-70
2023/04/28 10:18:45;;;;;;;5.82;4.07;;;16.70;61.70;;;;;;5014898;28;20064;-70
2023/04/28 10:21:16;;;;;;;6.88;4.40;;;16.80;61.00;;;;;;5011243;28;20320;-70
2023/04/28 10:24:09;;;;;;;5.30;3.00;;;16.90;61.30;;;;;;5011663;28;20040;-70
2023/04/28 10:27:10;;;;;;;6.05;3.50;;;17.00;61.60;;;;;;5027202;28;20428;-69
2023/04/28 10:29:36;;;;;;;6.53;3.90;;;17.10;61.20;;;;;;5020636;28;20543;-71
2023/04/28 10:32:25;;;;;;;4.88;3.50;;;17.10;60.50;;;;;;5015259;28;20041;-72
2023/04/28 10:34:51;;;;;;;7.70;3.35;;;17.20;60.80;;;;;;5012498;28;20033;-71
2023/04/28 10:37:18;;;;;;;9.07;3.05;;;17.30;60.60;;;;;;5014226;28;20041;-71
2023/04/28 10:40:21;;;;;;;4.75;3.10;;;17.30;60.50;;;;;;5015126;28;20029;-70
2023/04/28 10:42:54;;;;;;;7.72;3.50;;;17.40;60.30;;;;;;5025922;28;20346;-70
2023/04/28 10:45:51;;;;;;;7.80;3.88;;;17.40;59.40;;;;;;5009126;28;20030;-70
2023/04/28 10:48:38;;;;;;;6.90;3.72;;;17.30;59.20;;;;;;5018467;28;20048;-70
2023/04/28 10:51:04;;;;;;;5.65;4.45;;;17.30;59.20;;;;;;5023035;28;20034;-70
2023/04/28 10:53:45;;;;;;;5.18;3.45;;;17.30;59.50;;;;;;5011910;28;20152;-70
2023/04/28 10:56:23;;;;;;;7.38;3.95;;;17.40;59.70;;;;;;5015556;28;20048;-70
2023/04/28 10:58:56;;;;;;;6.55;3.33;;;17.50;59.70;;;;;;5013499;28;20025;-70
2023/04/28 11:01:30;;;;;;;9.93;3.63;;;17.50;58.90;;;;;;5015365;28;20118;-69
2023/04/28 11:04:10;;;;;;;8.27;4.05;;;17.50;58.80;;;;;;5014604;28;20037;-71
2023/04/28 11:06:40;;;;;;;7.35;3.92;;;17.50;59.20;;;;;;5015706;28;20041;-69
2023/04/28 11:09:16;;;;;;;7.55;3.90;;;17.50;58.30;;;;;;5015917;28;20026;-69
2023/04/28 11:11:54;;;;;;;6.28;3.28;;;17.50;58.90;;;;;;5015718;28;20072;-70
2023/04/28 11:14:20;;;;;;;7.00;3.67;;;17.70;59.60;;;;;;5020983;28;20068;-70
2023/04/28 11:17:02;;;;;;;7.43;3.22;;;17.80;58.90;;;;;;5026693;28;20386;-69
2023/04/28 11:19:28;;;;;;;6.90;3.00;;;17.90;58.20;;;;;;5022314;28;20034;-69
2023/04/28 11:21:56;;;;;;;8.05;3.72;;;17.90;57.90;;;;;;5016596;28;20033;-69
2023/04/28 11:24:29;;;;;;;7.32;3.95;;;17.90;57.80;;;;;;5025234;28;20026;-70
2023/04/28 11:26:58;;;;;;;7.55;4.28;;;18.00;57.80;;;;;;5018016;28;20053;-69
2023/04/28 11:29:35;;;;;;;5.88;3.63;;;18.00;57.50;;;;;;5015272;28;20121;-69
2023/04/28 11:32:02;;;;;;;5.40;3.90;;;18.00;57.70;;;;;;5022652;28;20033;-70
2023/04/28 11:34:28;;;;;;;8.38;4.53;;;18.00;58.00;;;;;;5025580;28;20022;-70
2023/04/28 11:36:54;;;;;;;9.70;4.38;;;18.10;58.00;;;;;;5016104;28;20478;-70
2023/04/28 11:39:30;;;;;;;6.43;3.35;;;18.10;58.20;;;;;;5015511;28;20025;-71
2023/04/28 11:42:01;;;;;;;7.22;3.85;;;18.20;57.60;;;;;;5017481;28;20037;-71
2023/04/28 11:44:29;;;;;;;9.65;4.30;;;18.30;58.10;;;;;;5026660;28;20112;-66
2023/04/28 11:47:01;;;;;;;9.30;3.80;;;18.40;58.10;;;;;;5016101;28;20056;-67
2023/04/28 11:49:29;;;;;;;7.38;3.85;;;18.40;58.40;;;;;;5019437;28;20026;-68
2023/04/28 11:52:04;;;;;;;5.40;3.38;;;18.50;57.90;;;;;;5027036;28;20034;-71
2023/04/28 11:54:30;;;;;;;9.82;4.28;;;18.50;57.50;;;;;;5016253;28;20484;-71
2023/04/28 11:56:57;;;;;;;10.05;3.92;;;18.50;57.60;;;;;;5025932;28;20030;-70
2023/04/28 11:59:25;;;;;;;6.47;3.38;;;18.60;57.30;;;;;;5014541;28;20112;-70
2023/04/28 12:02:11;;;;;;;5.45;3.90;;;18.50;57.20;;;;;;5016747;28;20461;-71
2023/04/28 12:04:38;;;;;;;7.57;3.83;;;18.70;57.60;;;;;;5022433;28;20049;-75
2023/04/28 12:07:06;;;;;;;8.38;4.32;;;18.70;57.90;;;;;;5019913;28;20034;-71
2023/04/28 12:09:40;;;;;;;6.70;4.45;;;18.80;57.40;;;;;;5013839;28;20049;-71
2023/04/28 12:12:27;;;;;;;5.50;3.55;;;18.90;57.00;;;;;;5025369;28;20053;-70
2023/04/28 12:15:01;;;;;;;8.45;4.47;;;19.00;57.40;;;;;;5019818;28;20037;-73
2023/04/28 12:17:38;;;;;;;6.32;3.78;;;19.10;57.20;;;;;;5023053;28;20022;-71
2023/04/28 12:20:06;;;;;;;7.93;3.70;;;19.30;57.50;;;;;;5017143;28;20040;-72
2023/04/28 12:22:43;;;;;;;9.63;4.55;;;19.40;56.80;;;;;;5017760;28;20026;-72
2023/04/28 12:25:11;;;;;;;6.47;3.83;;;19.40;56.90;;;;;;5020255;28;20029;-69
2023/04/28 12:27:39;;;;;;;6.10;3.83;;;19.50;56.80;;;;;;5020325;28;20444;-72
2023/04/28 12:30:28;;;;;;;10.18;4.50;;;19.50;56.50;;;;;;5018947;28;20022;-72
2023/04/28 12:32:55;;;;;;;7.38;4.05;;;19.50;56.50;;;;;;5023043;28;20075;-73
2023/04/28 12:35:22;;;;;;;7.47;4.10;;;19.50;56.40;;;;;;5017930;28;20026;-73
2023/04/28 12:37:48;;;;;;;6.32;3.92;;;19.50;55.90;;;;;;5012324;28;20101;-72
2023/04/28 12:40:13;;;;;;;7.03;3.58;;;19.50;56.10;;;;;;5020467;28;20176;-72
2023/04/28 12:42:39;;;;;;;9.85;4.10;;;19.60;56.50;;;;;;5015553;28;20026;-72
2023/04/28 12:45:06;;;;;;;7.05;3.40;;;19.60;56.40;;;;;;5014361;28;20037;-73
2023/04/28 12:47:32;;;;;;;8.73;3.95;;;19.60;56.50;;;;;;5017447;28;20044;-72
2023/04/28 12:49:57;;;;;;;7.22;3.60;;;19.60;56.20;;;;;;5019652;28;20026;-72
2023/04/28 12:52:23;;;;;;;12.32;3.45;;;19.60;55.90;;;;;;5028880;28;20044;-72